sensor_id;sensor_type;location;lat;lon;timestamp;P1;durP1;ratioP1;P2;durP2;ratioP2
9801;SDS011;4940;50.900;4.672;2023-03-23T00:01:27;7.65;;;6.90;;
9801;SDS011;4940;50.900;4.672;2023-03-23T00:03:56;7.40;;;6.70;;
9801;SDS011;4940;50.900;4.672;2023-03-23T00:06:26;6.00;;;5.55;;
9801;SDS011;4940;50.900;4.672;2023-03-23T00:08:59;6.80;;;6.30;;
9801;SDS011;4940;50.900;4.672;2023-03-23T00:11:28;7.03;;;6.40;;
9801;SDS011;4940;50.900;4.672;2023-03-23T00:13:57;6.85;;;6.22;;
9801;SDS011;4940;50.900;4.672;2023-03-23T00:16:27;5.75;;;5.35;;
9801;SDS011;4940;50.900;4.672;2023-03-23T00:18:58;6.70;;;6.20;;
9801;SDS011;4940;50.900;4.672;2023-03-23T00:21:29;7.03;;;6.43;;
9801;SDS011;4940;50.900;4.672;2023-03-23T00:24:04;7.15;;;6.43;;
9801;SDS011;4940;50.900;4.672;2023-03-23T00:26:34;7.45;;;6.75;;
9801;SDS011;4940;50.900;4.672;2023-03-23T00:29:05;6.53;;;5.97;;
9801;SDS011;4940;50.900;4.672;2023-03-23T00:31:33;6.88;;;6.22;;
9801;SDS011;4940;50.900;4.672;2023-03-23T00:34:01;5.93;;;5.45;;
9801;SDS011;4940;50.900;4.672;2023-03-23T00:36:30;6.65;;;6.13;;
9801;SDS011;4940;50.900;4.672;2023-03-23T00:39:00;7.00;;;6.40;;
9801;SDS011;4940;50.900;4.672;2023-03-23T00:41:29;7.07;;;6.50;;
9801;SDS011;4940;50.900;4.672;2023-03-23T00:43:58;7.07;;;6.57;;
9801;SDS011;4940;50.900;4.672;2023-03-23T00:46:26;6.60;;;6.07;;
9801;SDS011;4940;50.900;4.672;2023-03-23T00:48:54;6.63;;;5.90;;
9801;SDS011;4940;50.900;4.672;2023-03-23T00:51:22;6.45;;;5.57;;
9801;SDS011;4940;50.900;4.672;2023-03-23T00:53:50;6.80;;;6.10;;
9801;SDS011;4940;50.900;4.672;2023-03-23T00:56:17;7.18;;;6.57;;
9801;SDS011;4940;50.900;4.672;2023-03-23T00:58:46;7.13;;;6.53;;
9801;SDS011;4940;50.900;4.672;2023-03-23T01:01:13;6.22;;;5.72;;
9801;SDS011;4940;50.900;4.672;2023-03-23T01:03:41;6.53;;;5.78;;
9801;SDS011;4940;50.900;4.672;2023-03-23T01:06:10;6.40;;;5.93;;
9801;SDS011;4940;50.900;4.672;2023-03-23T01:08:39;6.20;;;5.70;;
9801;SDS011;4940;50.900;4.672;2023-03-23T01:11:10;6.20;;;5.60;;
9801;SDS011;4940;50.900;4.672;2023-03-23T01:13:39;6.90;;;6.25;;
9801;SDS011;4940;50.900;4.672;2023-03-23T01:16:08;7.07;;;6.57;;
9801;SDS011;4940;50.900;4.672;2023-03-23T01:18:36;7.00;;;6.30;;
9801;SDS011;4940;50.900;4.672;2023-03-23T01:21:04;7.80;;;6.75;;
9801;SDS011;4940;50.900;4.672;2023-03-23T01:23:32;6.30;;;5.70;;
9801;SDS011;4940;50.900;4.672;2023-03-23T01:26:02;6.65;;;6.15;;
9801;SDS011;4940;50.900;4.672;2023-03-23T01:28:30;6.88;;;6.15;;
9801;SDS011;4940;50.900;4.672;2023-03-23T01:31:01;6.22;;;5.65;;
9801;SDS011;4940;50.900;4.672;2023-03-23T01:33:31;5.95;;;5.45;;
9801;SDS011;4940;50.900;4.672;2023-03-23T01:36:02;6.15;;;5.65;;
9801;SDS011;4940;50.900;4.672;2023-03-23T01:38:30;5.70;;;5.30;;
9801;SDS011;4940;50.900;4.672;2023-03-23T01:40:57;6.43;;;5.80;;
9801;SDS011;4940;50.900;4.672;2023-03-23T01:43:25;6.20;;;5.60;;
9801;SDS011;4940;50.900;4.672;2023-03-23T01:45:53;6.93;;;5.95;;
9801;SDS011;4940;50.900;4.672;2023-03-23T01:48:20;6.85;;;6.25;;
9801;SDS011;4940;50.900;4.672;2023-03-23T01:50:55;6.63;;;6.03;;
9801;SDS011;4940;50.900;4.672;2023-03-23T01:53:27;5.95;;;5.45;;
9801;SDS011;4940;50.900;4.672;2023-03-23T01:55:59;6.35;;;5.85;;
9801;SDS011;4940;50.900;4.672;2023-03-23T01:58:29;6.10;;;5.60;;
9801;SDS011;4940;50.900;4.672;2023-03-23T02:01:00;6.53;;;5.90;;
9801;SDS011;4940;50.900;4.672;2023-03-23T02:03:31;6.05;;;5.57;;
9801;SDS011;4940;50.900;4.672;2023-03-23T02:06:02;6.03;;;5.53;;
9801;SDS011;4940;50.900;4.672;2023-03-23T02:08:30;6.68;;;5.65;;
9801;SDS011;4940;50.900;4.672;2023-03-23T02:10:59;7.43;;;5.47;;
9801;SDS011;4940;50.900;4.672;2023-03-23T02:13:27;5.90;;;5.30;;
9801;SDS011;4940;50.900;4.672;2023-03-23T02:15:58;5.78;;;5.18;;
9801;SDS011;4940;50.900;4.672;2023-03-23T02:18:38;5.80;;;5.30;;
9801;SDS011;4940;50.900;4.672;2023-03-23T02:24:32;5.85;;;5.35;;
9801;SDS011;4940;50.900;4.672;2023-03-23T02:27:17;5.20;;;4.70;;
9801;SDS011;4940;50.900;4.672;2023-03-23T02:30:21;5.30;;;4.90;;
9801;SDS011;4940;50.900;4.672;2023-03-23T02:36:07;5.68;;;4.50;;
9801;SDS011;4940;50.900;4.672;2023-03-23T02:38:42;5.57;;;4.30;;
9801;SDS011;4940;50.900;4.672;2023-03-23T02:41:16;4.60;;;4.20;;
9801;SDS011;4940;50.900;4.672;2023-03-23T02:43:49;6.20;;;4.00;;
9801;SDS011;4940;50.900;4.672;2023-03-23T02:46:17;4.20;;;3.80;;
9801;SDS011;4940;50.900;4.672;2023-03-23T02:48:47;4.03;;;3.70;;
9801;SDS011;4940;50.900;4.672;2023-03-23T02:51:19;4.22;;;3.13;;
9801;SDS011;4940;50.900;4.672;2023-03-23T02:53:48;3.55;;;3.20;;
9801;SDS011;4940;50.900;4.672;2023-03-23T02:56:18;3.33;;;2.72;;
9801;SDS011;4940;50.900;4.672;2023-03-23T02:58:47;3.15;;;2.85;;
9801;SDS011;4940;50.900;4.672;2023-03-23T03:01:16;6.38;;;3.25;;
9801;SDS011;4940;50.900;4.672;2023-03-23T03:04:19;3.95;;;2.38;;
9801;SDS011;4940;50.900;4.672;2023-03-23T03:06:51;3.05;;;2.60;;
9801;SDS011;4940;50.900;4.672;2023-03-23T03:09:32;4.82;;;2.78;;
9801;SDS011;4940;50.900;4.672;2023-03-23T03:12:06;4.38;;;2.97;;
9801;SDS011;4940;50.900;4.672;2023-03-23T03:14:39;4.50;;;2.33;;
9801;SDS011;4940;50.900;4.672;2023-03-23T03:17:14;7.18;;;2.80;;
9801;SDS011;4940;50.900;4.672;2023-03-23T03:19:47;5.43;;;2.65;;
9801;SDS011;4940;50.900;4.672;2023-03-23T03:22:18;4.80;;;2.40;;
9801;SDS011;4940;50.900;4.672;2023-03-23T03:24:47;5.85;;;2.40;;
9801;SDS011;4940;50.900;4.672;2023-03-23T03:27:18;5.63;;;2.15;;
9801;SDS011;4940;50.900;4.672;2023-03-23T03:29:49;4.47;;;2.17;;
9801;SDS011;4940;50.900;4.672;2023-03-23T03:32:22;3.28;;;2.45;;
9801;SDS011;4940;50.900;4.672;2023-03-23T03:34:56;2.53;;;2.20;;
9801;SDS011;4940;50.900;4.672;2023-03-23T03:37:25;3.88;;;2.30;;
9801;SDS011;4940;50.900;4.672;2023-03-23T03:39:53;2.60;;;2.15;;
9801;SDS011;4940;50.900;4.672;2023-03-23T03:42:20;3.05;;;2.00;;
9801;SDS011;4940;50.900;4.672;2023-03-23T03:44:48;5.03;;;2.30;;
9801;SDS011;4940;50.900;4.672;2023-03-23T03:47:16;4.13;;;2.40;;
9801;SDS011;4940;50.900;4.672;2023-03-23T03:49:43;5.68;;;2.65;;
9801;SDS011;4940;50.900;4.672;2023-03-23T03:52:11;2.63;;;2.30;;
9801;SDS011;4940;50.900;4.672;2023-03-23T03:54:39;4.13;;;2.50;;
9801;SDS011;4940;50.900;4.672;2023-03-23T03:57:07;2.50;;;2.30;;
9801;SDS011;4940;50.900;4.672;2023-03-23T03:59:34;3.50;;;2.90;;
9801;SDS011;4940;50.900;4.672;2023-03-23T04:02:02;3.42;;;2.63;;
9801;SDS011;4940;50.900;4.672;2023-03-23T04:04:29;3.35;;;2.45;;
9801;SDS011;4940;50.900;4.672;2023-03-23T04:06:57;4.15;;;2.17;;
9801;SDS011;4940;50.900;4.672;2023-03-23T04:09:24;5.03;;;2.20;;
9801;SDS011;4940;50.900;4.672;2023-03-23T04:11:53;3.55;;;2.35;;
9801;SDS011;4940;50.900;4.672;2023-03-23T04:14:21;2.85;;;2.42;;
9801;SDS011;4940;50.900;4.672;2023-03-23T04:16:48;2.55;;;2.35;;
9801;SDS011;4940;50.900;4.672;2023-03-23T04:19:22;4.30;;;2.70;;
9801;SDS011;4940;50.900;4.672;2023-03-23T04:21:49;4.20;;;2.65;;
9801;SDS011;4940;50.900;4.672;2023-03-23T04:24:17;6.45;;;3.00;;
9801;SDS011;4940;50.900;4.672;2023-03-23T04:26:46;3.67;;;2.60;;
9801;SDS011;4940;50.900;4.672;2023-03-23T04:29:15;4.10;;;2.58;;
9801;SDS011;4940;50.900;4.672;2023-03-23T04:31:42;3.25;;;2.58;;
9801;SDS011;4940;50.900;4.672;2023-03-23T04:34:10;4.75;;;2.47;;
9801;SDS011;4940;50.900;4.672;2023-03-23T04:36:38;5.28;;;2.00;;
9801;SDS011;4940;50.900;4.672;2023-03-23T04:39:06;5.03;;;2.22;;
9801;SDS011;4940;50.900;4.672;2023-03-23T04:41:35;5.32;;;2.35;;
9801;SDS011;4940;50.900;4.672;2023-03-23T04:44:03;3.30;;;1.80;;
9801;SDS011;4940;50.900;4.672;2023-03-23T04:46:32;2.92;;;2.10;;
9801;SDS011;4940;50.900;4.672;2023-03-23T04:49:00;5.70;;;2.20;;
9801;SDS011;4940;50.900;4.672;2023-03-23T04:51:28;5.05;;;1.60;;
9801;SDS011;4940;50.900;4.672;2023-03-23T04:53:56;4.75;;;1.92;;
9801;SDS011;4940;50.900;4.672;2023-03-23T04:56:24;4.47;;;1.85;;
9801;SDS011;4940;50.900;4.672;2023-03-23T04:58:51;4.10;;;1.77;;
9801;SDS011;4940;50.900;4.672;2023-03-23T05:01:19;3.67;;;1.50;;
9801;SDS011;4940;50.900;4.672;2023-03-23T05:03:48;5.43;;;1.83;;
9801;SDS011;4940;50.900;4.672;2023-03-23T05:06:15;4.65;;;1.90;;
9801;SDS011;4940;50.900;4.672;2023-03-23T05:08:43;5.70;;;1.65;;
9801;SDS011;4940;50.900;4.672;2023-03-23T05:11:10;4.80;;;1.60;;
9801;SDS011;4940;50.900;4.672;2023-03-23T05:13:38;3.70;;;1.42;;
9801;SDS011;4940;50.900;4.672;2023-03-23T05:16:06;3.78;;;1.42;;
9801;SDS011;4940;50.900;4.672;2023-03-23T05:18:33;3.42;;;1.30;;
9801;SDS011;4940;50.900;4.672;2023-03-23T05:21:03;3.53;;;1.70;;
9801;SDS011;4940;50.900;4.672;2023-03-23T05:23:30;3.78;;;1.40;;
9801;SDS011;4940;50.900;4.672;2023-03-23T05:25:59;2.33;;;1.52;;
9801;SDS011;4940;50.900;4.672;2023-03-23T05:28:28;5.25;;;1.88;;
9801;SDS011;4940;50.900;4.672;2023-03-23T05:30:55;4.30;;;1.60;;
9801;SDS011;4940;50.900;4.672;2023-03-23T05:33:23;6.88;;;1.92;;
9801;SDS011;4940;50.900;4.672;2023-03-23T05:35:50;3.92;;;1.95;;
9801;SDS011;4940;50.900;4.672;2023-03-23T05:38:19;3.08;;;1.45;;
9801;SDS011;4940;50.900;4.672;2023-03-23T05:40:47;3.47;;;2.15;;
9801;SDS011;4940;50.900;4.672;2023-03-23T05:43:15;4.60;;;2.20;;
9801;SDS011;4940;50.900;4.672;2023-03-23T05:45:43;2.35;;;2.15;;
9801;SDS011;4940;50.900;4.672;2023-03-23T05:48:10;8.63;;;1.98;;
9801;SDS011;4940;50.900;4.672;2023-03-23T05:50:38;7.18;;;2.35;;
9801;SDS011;4940;50.900;4.672;2023-03-23T05:53:06;4.88;;;2.13;;
9801;SDS011;4940;50.900;4.672;2023-03-23T05:55:34;5.15;;;2.50;;
9801;SDS011;4940;50.900;4.672;2023-03-23T05:58:02;3.72;;;2.17;;
9801;SDS011;4940;50.900;4.672;2023-03-23T06:00:29;2.97;;;2.20;;
9801;SDS011;4940;50.900;4.672;2023-03-23T06:02:58;2.13;;;1.80;;
9801;SDS011;4940;50.900;4.672;2023-03-23T06:05:26;5.20;;;2.20;;
9801;SDS011;4940;50.900;4.672;2023-03-23T06:07:54;2.63;;;2.42;;
9801;SDS011;4940;50.900;4.672;2023-03-23T06:10:22;3.65;;;2.00;;
9801;SDS011;4940;50.900;4.672;2023-03-23T06:12:50;3.78;;;2.38;;
9801;SDS011;4940;50.900;4.672;2023-03-23T06:15:18;4.03;;;1.75;;
9801;SDS011;4940;50.900;4.672;2023-03-23T06:17:45;8.68;;;2.40;;
9801;SDS011;4940;50.900;4.672;2023-03-23T06:20:13;3.80;;;1.95;;
9801;SDS011;4940;50.900;4.672;2023-03-23T06:22:40;3.13;;;2.15;;
9801;SDS011;4940;50.900;4.672;2023-03-23T06:25:08;2.90;;;2.28;;
9801;SDS011;4940;50.900;4.672;2023-03-23T06:27:38;2.63;;;2.00;;
9801;SDS011;4940;50.900;4.672;2023-03-23T06:30:07;2.38;;;2.17;;
9801;SDS011;4940;50.900;4.672;2023-03-23T06:32:37;5.45;;;2.10;;
9801;SDS011;4940;50.900;4.672;2023-03-23T06:35:04;4.05;;;2.35;;
9801;SDS011;4940;50.900;4.672;2023-03-23T06:37:34;3.53;;;2.42;;
9801;SDS011;4940;50.900;4.672;2023-03-23T06:40:02;2.90;;;2.20;;
9801;SDS011;4940;50.900;4.672;2023-03-23T06:42:31;2.47;;;1.90;;
9801;SDS011;4940;50.900;4.672;2023-03-23T06:44:58;2.67;;;2.00;;
9801;SDS011;4940;50.900;4.672;2023-03-23T06:47:28;4.15;;;2.15;;
9801;SDS011;4940;50.900;4.672;2023-03-23T06:49:55;3.47;;;2.05;;
9801;SDS011;4940;50.900;4.672;2023-03-23T06:52:23;2.97;;;2.10;;
9801;SDS011;4940;50.900;4.672;2023-03-23T06:54:51;2.67;;;1.95;;
9801;SDS011;4940;50.900;4.672;2023-03-23T06:57:18;3.80;;;2.35;;
9801;SDS011;4940;50.900;4.672;2023-03-23T06:59:46;3.83;;;2.10;;
9801;SDS011;4940;50.900;4.672;2023-03-23T07:02:13;5.97;;;2.00;;
9801;SDS011;4940;50.900;4.672;2023-03-23T07:04:42;5.70;;;1.70;;
9801;SDS011;4940;50.900;4.672;2023-03-23T07:07:10;4.78;;;1.83;;
9801;SDS011;4940;50.900;4.672;2023-03-23T07:09:48;2.83;;;1.98;;
9801;SDS011;4940;50.900;4.672;2023-03-23T07:12:28;3.13;;;2.10;;
9801;SDS011;4940;50.900;4.672;2023-03-23T07:14:56;5.25;;;1.90;;
9801;SDS011;4940;50.900;4.672;2023-03-23T07:17:23;7.00;;;2.47;;
9801;SDS011;4940;50.900;4.672;2023-03-23T07:19:52;5.78;;;2.70;;
9801;SDS011;4940;50.900;4.672;2023-03-23T07:22:19;4.90;;;3.70;;
9801;SDS011;4940;50.900;4.672;2023-03-23T07:24:47;4.90;;;4.07;;
9801;SDS011;4940;50.900;4.672;2023-03-23T07:27:15;4.25;;;3.78;;
9801;SDS011;4940;50.900;4.672;2023-03-23T07:29:42;3.97;;;3.78;;
9801;SDS011;4940;50.900;4.672;2023-03-23T07:32:10;5.70;;;5.40;;
9801;SDS011;4940;50.900;4.672;2023-03-23T07:34:38;12.75;;;12.05;;
9801;SDS011;4940;50.900;4.672;2023-03-23T07:37:08;20.98;;;19.88;;
9801;SDS011;4940;50.900;4.672;2023-03-23T07:39:35;23.85;;;22.55;;
9801;SDS011;4940;50.900;4.672;2023-03-23T07:42:02;31.80;;;30.20;;
9801;SDS011;4940;50.900;4.672;2023-03-23T07:44:32;36.10;;;34.10;;
9801;SDS011;4940;50.900;4.672;2023-03-23T07:47:00;36.95;;;35.08;;
9801;SDS011;4940;50.900;4.672;2023-03-23T07:49:28;37.90;;;35.90;;
9801;SDS011;4940;50.900;4.672;2023-03-23T07:51:56;38.40;;;36.10;;
9801;SDS011;4940;50.900;4.672;2023-03-23T07:54:25;38.97;;;36.60;;
9801;SDS011;4940;50.900;4.672;2023-03-23T07:56:52;39.38;;;36.88;;
9801;SDS011;4940;50.900;4.672;2023-03-23T07:59:20;40.88;;;38.38;;
9801;SDS011;4940;50.900;4.672;2023-03-23T08:01:47;42.85;;;39.95;;
9801;SDS011;4940;50.900;4.672;2023-03-23T08:04:15;41.28;;;38.58;;
9801;SDS011;4940;50.900;4.672;2023-03-23T08:06:42;44.45;;;41.30;;
9801;SDS011;4940;50.900;4.672;2023-03-23T08:09:10;43.60;;;40.50;;
9801;SDS011;4940;50.900;4.672;2023-03-23T08:11:39;45.88;;;42.70;;
9801;SDS011;4940;50.900;4.672;2023-03-23T08:14:07;46.03;;;42.80;;
9801;SDS011;4940;50.900;4.672;2023-03-23T08:16:34;49.75;;;46.22;;
9801;SDS011;4940;50.900;4.672;2023-03-23T08:19:02;49.45;;;45.92;;
9801;SDS011;4940;50.900;4.672;2023-03-23T08:21:30;49.40;;;45.72;;
9801;SDS011;4940;50.900;4.672;2023-03-23T08:23:58;50.15;;;46.55;;
9801;SDS011;4940;50.900;4.672;2023-03-23T08:26:26;49.08;;;45.50;;
9801;SDS011;4940;50.900;4.672;2023-03-23T08:28:55;52.50;;;48.53;;
9801;SDS011;4940;50.900;4.672;2023-03-23T08:31:22;50.08;;;46.38;;
9801;SDS011;4940;50.900;4.672;2023-03-23T08:33:50;52.33;;;48.63;;
9801;SDS011;4940;50.900;4.672;2023-03-23T08:36:17;51.78;;;47.88;;
9801;SDS011;4940;50.900;4.672;2023-03-23T08:38:45;50.08;;;46.30;;
9801;SDS011;4940;50.900;4.672;2023-03-23T08:41:12;51.55;;;47.50;;
9801;SDS011;4940;50.900;4.672;2023-03-23T08:43:40;47.97;;;44.47;;
9801;SDS011;4940;50.900;4.672;2023-03-23T08:46:10;46.20;;;42.80;;
9801;SDS011;4940;50.900;4.672;2023-03-23T08:48:37;47.22;;;43.63;;
9801;SDS011;4940;50.900;4.672;2023-03-23T08:51:06;46.58;;;43.13;;
9801;SDS011;4940;50.900;4.672;2023-03-23T08:53:34;46.40;;;43.20;;
9801;SDS011;4940;50.900;4.672;2023-03-23T08:56:03;48.83;;;45.40;;
9801;SDS011;4940;50.900;4.672;2023-03-23T08:58:31;46.60;;;43.40;;
9801;SDS011;4940;50.900;4.672;2023-03-23T09:00:59;46.55;;;43.33;;
9801;SDS011;4940;50.900;4.672;2023-03-23T09:03:28;48.80;;;45.20;;
9801;SDS011;4940;50.900;4.672;2023-03-23T09:05:58;47.85;;;44.45;;
9801;SDS011;4940;50.900;4.672;2023-03-23T09:08:26;54.03;;;50.17;;
9801;SDS011;4940;50.900;4.672;2023-03-23T09:10:55;58.92;;;54.80;;
9801;SDS011;4940;50.900;4.672;2023-03-23T09:13:22;58.78;;;54.65;;
9801;SDS011;4940;50.900;4.672;2023-03-23T09:15:49;55.88;;;51.88;;
9801;SDS011;4940;50.900;4.672;2023-03-23T09:18:17;55.90;;;51.53;;
9801;SDS011;4940;50.900;4.672;2023-03-23T09:20:46;54.80;;;51.00;;
9801;SDS011;4940;50.900;4.672;2023-03-23T09:23:16;53.42;;;49.75;;
9801;SDS011;4940;50.900;4.672;2023-03-23T09:25:43;53.72;;;49.97;;
9801;SDS011;4940;50.900;4.672;2023-03-23T09:28:11;54.78;;;51.08;;
9801;SDS011;4940;50.900;4.672;2023-03-23T09:30:39;54.58;;;50.67;;
9801;SDS011;4940;50.900;4.672;2023-03-23T09:33:08;54.65;;;50.42;;
9801;SDS011;4940;50.900;4.672;2023-03-23T09:35:35;54.85;;;51.03;;
9801;SDS011;4940;50.900;4.672;2023-03-23T09:38:05;52.28;;;48.55;;
9801;SDS011;4940;50.900;4.672;2023-03-23T09:40:33;53.13;;;49.25;;
9801;SDS011;4940;50.900;4.672;2023-03-23T09:43:14;52.65;;;48.60;;
9801;SDS011;4940;50.900;4.672;2023-03-23T09:46:00;54.22;;;50.22;;
9801;SDS011;4940;50.900;4.672;2023-03-23T09:48:33;52.85;;;48.95;;
9801;SDS011;4940;50.900;4.672;2023-03-23T09:51:08;53.30;;;49.30;;
9801;SDS011;4940;50.900;4.672;2023-03-23T09:53:45;50.65;;;46.80;;
9801;SDS011;4940;50.900;4.672;2023-03-23T09:56:17;53.17;;;48.95;;
9801;SDS011;4940;50.900;4.672;2023-03-23T09:58:46;58.40;;;53.80;;
9801;SDS011;4940;50.900;4.672;2023-03-23T10:01:20;65.45;;;60.15;;
9801;SDS011;4940;50.900;4.672;2023-03-23T10:03:49;64.95;;;59.75;;
9801;SDS011;4940;50.900;4.672;2023-03-23T10:06:24;61.13;;;56.42;;
9801;SDS011;4940;50.900;4.672;2023-03-23T10:08:53;57.13;;;52.53;;
9801;SDS011;4940;50.900;4.672;2023-03-23T10:11:25;57.72;;;52.92;;
9801;SDS011;4940;50.900;4.672;2023-03-23T10:14:03;51.83;;;47.85;;
9801;SDS011;4940;50.900;4.672;2023-03-23T10:16:39;46.78;;;43.38;;
9801;SDS011;4940;50.900;4.672;2023-03-23T10:19:10;50.05;;;46.38;;
9801;SDS011;4940;50.900;4.672;2023-03-23T10:21:41;47.80;;;44.30;;
9801;SDS011;4940;50.900;4.672;2023-03-23T10:24:16;47.80;;;44.30;;
9801;SDS011;4940;50.900;4.672;2023-03-23T10:26:52;48.08;;;44.38;;
9801;SDS011;4940;50.900;4.672;2023-03-23T10:29:26;46.88;;;43.33;;
9801;SDS011;4940;50.900;4.672;2023-03-23T10:31:56;47.45;;;44.05;;
9801;SDS011;4940;50.900;4.672;2023-03-23T10:34:28;44.35;;;41.25;;
9801;SDS011;4940;50.900;4.672;2023-03-23T10:37:01;44.97;;;41.63;;
9801;SDS011;4940;50.900;4.672;2023-03-23T10:39:31;48.05;;;44.58;;
9801;SDS011;4940;50.900;4.672;2023-03-23T10:42:01;46.92;;;43.45;;
9801;SDS011;4940;50.900;4.672;2023-03-23T10:44:32;47.70;;;44.42;;
9801;SDS011;4940;50.900;4.672;2023-03-23T10:47:01;47.95;;;44.67;;
9801;SDS011;4940;50.900;4.672;2023-03-23T10:49:31;42.90;;;40.17;;
9801;SDS011;4940;50.900;4.672;2023-03-23T10:52:22;45.35;;;42.53;;
9801;SDS011;4940;50.900;4.672;2023-03-23T10:55:01;48.15;;;45.17;;
9801;SDS011;4940;50.900;4.672;2023-03-23T10:57:31;42.25;;;39.63;;
9801;SDS011;4940;50.900;4.672;2023-03-23T11:00:00;44.22;;;41.50;;
9801;SDS011;4940;50.900;4.672;2023-03-23T11:02:31;34.55;;;32.60;;
9801;SDS011;4940;50.900;4.672;2023-03-23T11:05:04;22.23;;;20.85;;
9801;SDS011;4940;50.900;4.672;2023-03-23T11:07:40;4.95;;;4.55;;
9801;SDS011;4940;50.900;4.672;2023-03-23T11:10:16;3.40;;;3.20;;
9801;SDS011;4940;50.900;4.672;2023-03-23T11:12:47;1.95;;;1.65;;
9801;SDS011;4940;50.900;4.672;2023-03-23T11:15:16;5.07;;;1.83;;
9801;SDS011;4940;50.900;4.672;2023-03-23T11:17:56;5.00;;;1.98;;
9801;SDS011;4940;50.900;4.672;2023-03-23T11:20:25;2.53;;;1.55;;
9801;SDS011;4940;50.900;4.672;2023-03-23T11:22:53;3.42;;;1.70;;
9801;SDS011;4940;50.900;4.672;2023-03-23T11:25:22;4.10;;;1.75;;
9801;SDS011;4940;50.900;4.672;2023-03-23T11:27:51;3.00;;;1.63;;
9801;SDS011;4940;50.900;4.672;2023-03-23T11:30:22;2.67;;;1.60;;
9801;SDS011;4940;50.900;4.672;2023-03-23T11:32:52;3.35;;;1.83;;
9801;SDS011;4940;50.900;4.672;2023-03-23T11:35:22;3.58;;;1.83;;
9801;SDS011;4940;50.900;4.672;2023-03-23T11:37:53;4.47;;;1.65;;
9801;SDS011;4940;50.900;4.672;2023-03-23T11:40:24;3.78;;;1.85;;
9801;SDS011;4940;50.900;4.672;2023-03-23T11:42:59;5.35;;;1.90;;
9801;SDS011;4940;50.900;4.672;2023-03-23T11:45:33;5.80;;;2.17;;
9801;SDS011;4940;50.900;4.672;2023-03-23T11:48:06;1.85;;;1.63;;
9801;SDS011;4940;50.900;4.672;2023-03-23T11:50:44;3.08;;;2.35;;
9801;SDS011;4940;50.900;4.672;2023-03-23T11:53:17;4.75;;;3.22;;
9801;SDS011;4940;50.900;4.672;2023-03-23T11:55:54;7.97;;;3.58;;
9801;SDS011;4940;50.900;4.672;2023-03-23T11:58:27;5.90;;;3.10;;
9801;SDS011;4940;50.900;4.672;2023-03-23T12:00:58;5.57;;;3.35;;
9801;SDS011;4940;50.900;4.672;2023-03-23T12:06:42;7.70;;;2.65;;
9801;SDS011;4940;50.900;4.672;2023-03-23T12:09:20;7.28;;;2.53;;
9801;SDS011;4940;50.900;4.672;2023-03-23T12:11:59;5.43;;;2.05;;
9801;SDS011;4940;50.900;4.672;2023-03-23T12:14:39;4.50;;;1.80;;
9801;SDS011;4940;50.900;4.672;2023-03-23T12:17:16;8.35;;;1.90;;
9801;SDS011;4940;50.900;4.672;2023-03-23T12:19:54;4.22;;;1.70;;
9801;SDS011;4940;50.900;4.672;2023-03-23T12:22:39;3.85;;;1.90;;
9801;SDS011;4940;50.900;4.672;2023-03-23T12:25:19;4.43;;;1.40;;
9801;SDS011;4940;50.900;4.672;2023-03-23T12:28:03;4.30;;;2.10;;
9801;SDS011;4940;50.900;4.672;2023-03-23T12:30:38;5.10;;;1.80;;
9801;SDS011;4940;50.900;4.672;2023-03-23T12:33:16;2.45;;;1.30;;
9801;SDS011;4940;50.900;4.672;2023-03-23T12:35:50;3.80;;;1.45;;
9801;SDS011;4940;50.900;4.672;2023-03-23T12:38:39;2.00;;;1.35;;
9801;SDS011;4940;50.900;4.672;2023-03-23T12:41:17;2.47;;;1.10;;
9801;SDS011;4940;50.900;4.672;2023-03-23T12:43:52;2.13;;;1.33;;
9801;SDS011;4940;50.900;4.672;2023-03-23T12:46:31;4.00;;;1.10;;
9801;SDS011;4940;50.900;4.672;2023-03-23T12:49:18;5.32;;;1.60;;
9801;SDS011;4940;50.900;4.672;2023-03-23T12:51:51;5.20;;;1.40;;
9801;SDS011;4940;50.900;4.672;2023-03-23T12:54:24;4.90;;;1.17;;
9801;SDS011;4940;50.900;4.672;2023-03-23T12:56:59;2.63;;;1.27;;
9801;SDS011;4940;50.900;4.672;2023-03-23T12:59:36;2.33;;;1.10;;
9801;SDS011;4940;50.900;4.672;2023-03-23T13:02:10;5.75;;;1.20;;
9801;SDS011;4940;50.900;4.672;2023-03-23T13:04:43;6.90;;;1.70;;
9801;SDS011;4940;50.900;4.672;2023-03-23T13:07:13;3.85;;;1.40;;
9801;SDS011;4940;50.900;4.672;2023-03-23T13:09:49;5.03;;;1.80;;
9801;SDS011;4940;50.900;4.672;2023-03-23T13:12:21;3.05;;;2.03;;
9801;SDS011;4940;50.900;4.672;2023-03-23T13:14:55;3.72;;;2.38;;
9801;SDS011;4940;50.900;4.672;2023-03-23T13:17:33;3.42;;;2.10;;
9801;SDS011;4940;50.900;4.672;2023-03-23T13:20:14;6.28;;;2.40;;
9801;SDS011;4940;50.900;4.672;2023-03-23T13:22:58;2.95;;;1.80;;
9801;SDS011;4940;50.900;4.672;2023-03-23T13:25:36;8.60;;;1.67;;
9801;SDS011;4940;50.900;4.672;2023-03-23T13:28:14;3.90;;;2.17;;
9801;SDS011;4940;50.900;4.672;2023-03-23T13:33:44;5.28;;;1.90;;
9801;SDS011;4940;50.900;4.672;2023-03-23T13:36:13;3.58;;;1.90;;
9801;SDS011;4940;50.900;4.672;2023-03-23T13:38:45;4.18;;;1.73;;
9801;SDS011;4940;50.900;4.672;2023-03-23T13:41:14;5.53;;;2.08;;
9801;SDS011;4940;50.900;4.672;2023-03-23T13:43:43;5.63;;;2.67;;
9801;SDS011;4940;50.900;4.672;2023-03-23T13:46:23;3.03;;;2.15;;
9801;SDS011;4940;50.900;4.672;2023-03-23T13:49:02;6.25;;;2.25;;
9801;SDS011;4940;50.900;4.672;2023-03-23T13:51:47;5.45;;;2.25;;
9801;SDS011;4940;50.900;4.672;2023-03-23T13:54:24;3.92;;;2.20;;
9801;SDS011;4940;50.900;4.672;2023-03-23T13:56:57;3.45;;;1.70;;
9801;SDS011;4940;50.900;4.672;2023-03-23T13:59:33;5.93;;;1.77;;
9801;SDS011;4940;50.900;4.672;2023-03-23T14:04:56;6.07;;;2.00;;
9801;SDS011;4940;50.900;4.672;2023-03-23T14:07:24;5.00;;;1.95;;
9801;SDS011;4940;50.900;4.672;2023-03-23T14:09:52;7.30;;;2.30;;
9801;SDS011;4940;50.900;4.672;2023-03-23T14:12:20;7.90;;;1.85;;
9801;SDS011;4940;50.900;4.672;2023-03-23T14:14:55;5.07;;;1.67;;
9801;SDS011;4940;50.900;4.672;2023-03-23T14:17:42;5.63;;;2.03;;
9801;SDS011;4940;50.900;4.672;2023-03-23T14:20:15;6.13;;;1.75;;
9801;SDS011;4940;50.900;4.672;2023-03-23T14:22:52;4.18;;;1.33;;
9801;SDS011;4940;50.900;4.672;2023-03-23T14:25:21;3.72;;;1.50;;
9801;SDS011;4940;50.900;4.672;2023-03-23T14:27:52;5.07;;;1.58;;
9801;SDS011;4940;50.900;4.672;2023-03-23T14:30:21;3.88;;;1.25;;
9801;SDS011;4940;50.900;4.672;2023-03-23T14:32:51;4.03;;;1.60;;
9801;SDS011;4940;50.900;4.672;2023-03-23T14:35:22;5.43;;;1.55;;
9801;SDS011;4940;50.900;4.672;2023-03-23T14:37:52;3.45;;;1.70;;
9801;SDS011;4940;50.900;4.672;2023-03-23T14:40:20;3.90;;;1.42;;
9801;SDS011;4940;50.900;4.672;2023-03-23T14:42:47;9.25;;;1.58;;
9801;SDS011;4940;50.900;4.672;2023-03-23T14:45:16;2.25;;;1.40;;
9801;SDS011;4940;50.900;4.672;2023-03-23T14:47:45;4.25;;;1.48;;
9801;SDS011;4940;50.900;4.672;2023-03-23T14:50:23;4.32;;;1.63;;
9801;SDS011;4940;50.900;4.672;2023-03-23T14:52:55;6.30;;;1.90;;
9801;SDS011;4940;50.900;4.672;2023-03-23T14:55:25;5.53;;;1.80;;
9801;SDS011;4940;50.900;4.672;2023-03-23T14:57:56;5.60;;;1.90;;
9801;SDS011;4940;50.900;4.672;2023-03-23T15:00:34;4.55;;;1.90;;
9801;SDS011;4940;50.900;4.672;2023-03-23T15:03:05;3.53;;;1.88;;
9801;SDS011;4940;50.900;4.672;2023-03-23T15:05:42;4.32;;;1.90;;
9801;SDS011;4940;50.900;4.672;2023-03-23T15:08:12;5.25;;;2.30;;
9801;SDS011;4940;50.900;4.672;2023-03-23T15:10:50;4.43;;;1.92;;
9801;SDS011;4940;50.900;4.672;2023-03-23T15:13:19;3.90;;;1.77;;
9801;SDS011;4940;50.900;4.672;2023-03-23T15:15:47;5.25;;;1.98;;
9801;SDS011;4940;50.900;4.672;2023-03-23T15:18:32;4.40;;;1.60;;
9801;SDS011;4940;50.900;4.672;2023-03-23T15:21:10;4.18;;;1.65;;
9801;SDS011;4940;50.900;4.672;2023-03-23T15:23:46;3.72;;;1.90;;
9801;SDS011;4940;50.900;4.672;2023-03-23T15:31:48;3.75;;;1.58;;
9801;SDS011;4940;50.900;4.672;2023-03-23T15:34:20;5.80;;;1.55;;
9801;SDS011;4940;50.900;4.672;2023-03-23T15:36:56;4.90;;;2.03;;
9801;SDS011;4940;50.900;4.672;2023-03-23T15:39:26;4.85;;;1.70;;
9801;SDS011;4940;50.900;4.672;2023-03-23T15:41:55;5.00;;;1.85;;
9801;SDS011;4940;50.900;4.672;2023-03-23T15:44:24;3.75;;;1.83;;
9801;SDS011;4940;50.900;4.672;2023-03-23T15:47:04;3.58;;;1.58;;
9801;SDS011;4940;50.900;4.672;2023-03-23T15:49:38;4.15;;;1.83;;
9801;SDS011;4940;50.900;4.672;2023-03-23T15:52:08;3.80;;;1.80;;
9801;SDS011;4940;50.900;4.672;2023-03-23T15:54:37;6.47;;;2.30;;